Time;durP1;ratioP1;P1;durP2;ratioP2;P2;SDS_P1;SDS_P2;PMS_P1;PMS_P2;Temp;Humidity;BMP_temperature;BMP_pressure;BME280_temperature;BME280_humidity;BME280_pressure;Samples;Min_cycle;Max_cycle;Signal;HPM_P1;HPM_P2
2022/11/05 00:10:46;;;;;;;5.28;1.67;;;;;;;;;;4955268;28;20051;-61
2022/11/05 00:18:42;;;;;;;7.28;1.95;;;;;;;;;;4972422;28;20078;-61
2022/11/05 00:25:12;;;;;;;5.97;1.67;;;;;;;;;;4938326;28;20043;-62
2022/11/05 00:26:39;;;;;;;7.35;2.45;;;;;;;;;;4969220;28;20050;-62
2022/11/05 00:29:06;;;;;;;8.48;1.55;;;;;;;;;;4924364;28;20055;-62
2022/11/05 00:31:32;;;;;;;5.20;1.60;;;;;;;;;;4971520;28;20070;-63
2022/11/05 00:33:58;;;;;;;6.82;2.05;;;;;;;;;;4954112;28;20054;-62
2022/11/05 00:36:24;;;;;;;7.65;1.95;;;;;;;;;;4955277;28;20043;-62
2022/11/05 00:38:50;;;;;;;7.75;2.22;;;;;;;;;;4955911;28;20503;-66
2022/11/05 00:41:16;;;;;;;7.30;1.70;;;;;;;;;;4953297;28;20062;-63
2022/11/05 00:46:26;;;;;;;8.65;2.00;;;;;;;;;;4959696;28;20487;-62
2022/11/05 00:51:37;;;;;;;5.18;2.15;;;;;;;;;;4970983;28;20051;-62
2022/11/05 00:54:03;;;;;;;7.88;2.15;;;;;;;;;;4953362;28;20113;-62
2022/11/05 00:56:29;;;;;;;3.42;1.60;;;;;;;;;;4954558;28;20373;-61
2022/11/05 00:58:55;;;;;;;6.72;2.05;;;;;;;;;;4970787;28;20046;-62
2022/11/05 01:01:21;;;;;;;7.57;1.95;;;;;;;;;;4966530;28;20043;-61
2022/11/05 01:03:47;;;;;;;8.55;2.03;;;;;;;;;;4954043;28;20098;-62
2022/11/05 01:06:15;;;;;;;7.40;2.50;;;;;;;;;;4971052;28;20053;-63
2022/11/05 01:08:41;;;;;;;7.47;2.03;;;;;;;;;;4952505;28;20058;-62
2022/11/05 01:11:31;;;;;;;9.65;2.47;;;;;;;;;;4969895;28;20054;-62
2022/11/05 01:13:57;;;;;;;8.63;2.60;;;;;;;;;;4941172;28;20051;-62
2022/11/05 01:16:23;;;;;;;6.03;2.38;;;;;;;;;;4971645;28;20848;-62
2022/11/05 01:18:50;;;;;;;6.15;2.88;;;;;;;;;;4937897;28;20050;-62
2022/11/05 01:21:16;;;;;;;8.70;2.05;;;;;;;;;;4972502;28;20082;-62
2022/11/05 01:23:42;;;;;;;11.55;3.70;;;;;;;;;;4974399;28;20549;-62
2022/11/05 01:26:08;;;;;;;7.32;2.45;;;;;;;;;;4971281;28;20035;-62
2022/11/05 01:28:34;;;;;;;5.63;2.33;;;;;;;;;;4951274;28;20047;-62
2022/11/05 01:31:00;;;;;;;8.27;2.22;;;;;;;;;;4969539;28;20046;-63
2022/11/05 01:33:26;;;;;;;5.78;2.33;;;;;;;;;;4958705;28;20058;-61
2022/11/05 01:35:52;;;;;;;7.78;2.60;;;;;;;;;;4974603;28;20053;-62
2022/11/05 01:38:18;;;;;;;8.45;2.70;;;;;;;;;;4975091;28;20057;-62
2022/11/05 01:40:45;;;;;;;8.15;3.75;;;;;;;;;;4957786;28;20794;-62
2022/11/05 01:43:15;;;;;;;6.43;2.05;;;;;;;;;;4960753;28;20063;-62
2022/11/05 01:45:41;;;;;;;8.00;2.65;;;;;;;;;;4969584;28;20043;-62
2022/11/05 01:48:07;;;;;;;10.73;2.47;;;;;;;;;;4977678;28;20039;-62
2022/11/05 01:50:33;;;;;;;9.85;3.30;;;;;;;;;;4956435;28;20061;-62
2022/11/05 01:53:15;;;;;;;6.65;2.35;;;;;;;;;;4956823;28;20376;-62
2022/11/05 01:55:44;;;;;;;6.43;2.67;;;;;;;;;;4974941;28;20042;-62
2022/11/05 01:58:12;;;;;;;9.25;3.00;;;;;;;;;;4940713;28;20077;-62
2022/11/05 02:00:39;;;;;;;13.75;2.08;;;;;;;;;;4956786;28;20051;-62
2022/11/05 02:03:05;;;;;;;5.13;2.20;;;;;;;;;;4976383;28;20050;-62
2022/11/05 02:05:32;;;;;;;9.98;2.03;;;;;;;;;;4979122;28;20057;-62
2022/11/05 02:07:59;;;;;;;8.38;1.88;;;;;;;;;;4970907;28;20051;-62
2022/11/05 02:10:25;;;;;;;6.85;2.13;;;;;;;;;;4955085;28;20046;-64
2022/11/05 02:12:51;;;;;;;6.28;2.13;;;;;;;;;;4971331;28;20138;-63
2022/11/05 02:15:22;;;;;;;5.80;2.00;;;;;;;;;;4956675;28;20066;-62
2022/11/05 02:17:57;;;;;;;4.90;1.80;;;;;;;;;;4973537;28;20061;-62
2022/11/05 02:20:42;;;;;;;8.73;1.90;;;;;;;;;;4957661;28;20042;-62
2022/11/05 02:23:23;;;;;;;7.07;1.95;;;;;;;;;;4973998;28;20050;-62
2022/11/05 02:26:00;;;;;;;8.43;2.00;;;;;;;;;;4955249;28;20043;-62
2022/11/05 02:28:29;;;;;;;6.35;1.98;;;;;;;;;;4953379;28;20067;-62
2022/11/05 02:30:55;;;;;;;7.50;2.08;;;;;;;;;;4974386;28;20518;-62
2022/11/05 02:33:25;;;;;;;6.93;2.20;;;;;;;;;;4958056;28;20082;-62
2022/11/05 02:36:14;;;;;;;5.55;2.00;;;;;;;;;;4960168;28;20043;-63
2022/11/05 02:38:42;;;;;;;6.43;1.88;;;;;;;;;;4956935;28;20112;-63
2022/11/05 02:41:13;;;;;;;10.18;2.20;;;;;;;;;;4952239;28;20141;-62
2022/11/05 02:43:39;;;;;;;;;;;;;;;;;;4972459;28;20521;-65
2022/11/05 02:46:25;;;;;;;7.90;2.50;;;;;;;;;;4954838;28;19921;-62
2022/11/05 02:48:51;;;;;;;9.18;1.80;;;;;;;;;;4955721;28;20078;-63
2022/11/05 02:51:26;;;;;;;4.68;1.77;;;;;;;;;;4957386;28;20458;-62
2022/11/05 02:54:04;;;;;;;6.85;1.90;;;;;;;;;;4972559;28;20043;-62
2022/11/05 02:56:32;;;;;;;6.10;2.70;;;;;;;;;;4956472;28;20142;-62
2022/11/05 02:58:58;;;;;;;6.45;2.10;;;;;;;;;;4953424;28;20748;-62
2022/11/05 03:01:24;;;;;;;10.82;2.85;;;;;;;;;;4974034;28;20039;-62
2022/11/05 03:04:00;;;;;;;8.13;2.28;;;;;;;;;;4959456;28;20392;-65
2022/11/05 03:06:44;;;;;;;8.65;2.92;;;;;;;;;;4956229;28;20055;-63
2022/11/05 03:09:23;;;;;;;10.50;3.60;;;;;;;;;;4973460;28;20091;-63
2022/11/05 03:12:08;;;;;;;6.40;3.13;;;;;;;;;;4956683;28;20070;-62
2022/11/05 03:15:02;;;;;;;9.05;3.67;;;6.40;99.90;;;;;;4954711;28;20098;-62
2022/11/05 03:17:31;;;;;;;8.05;3.10;;;;;;;;;;4937628;28;20055;-62
2022/11/05 03:20:32;;;;;;;10.15;3.25;;;;;;;;;;4971606;28;20043;-63
2022/11/05 03:23:09;;;;;;;12.68;3.70;;;;;;;;;;4907530;23;20078;-63
2022/11/05 03:25:41;;;;;;;14.45;4.30;;;;;;;;;;4973306;23;20472;-62
2022/11/05 03:28:07;;;;;;;10.05;4.25;;;;;;;;;;4973830;28;20680;-62
2022/11/05 03:30:35;;;;;;;8.98;4.38;;;;;;;;;;4956771;28;20039;-62
2022/11/05 03:33:03;;;;;;;8.18;3.85;;;;;;;;;;4940782;28;20054;-63
2022/11/05 03:35:31;;;;;;;15.77;4.90;;;;;;;;;;4973157;28;20045;-62
2022/11/05 03:38:06;;;;;;;9.73;4.57;;;;;;;;;;4972411;28;20039;-62
2022/11/05 03:40:34;;;;;;;12.02;4.78;;;;;;;;;;4997439;23;20063;-63
2022/11/05 03:43:01;;;;;;;11.20;5.15;;;;;;;;;;4980712;23;20054;-62
2022/11/05 03:45:34;;;;;;;12.13;5.18;;;;;;;;;;4956537;28;20125;-63
2022/11/05 03:48:01;;;;;;;12.82;5.72;;;;;;;;;;4972386;28;20062;-62
2022/11/05 03:50:33;;;;;;;9.95;4.45;;;;;;;;;;4970698;28;20046;-61
2022/11/05 03:53:01;;;;;;;15.20;6.03;;;;;;;;;;4952783;28;20134;-62
2022/11/05 03:55:32;;;;;;;13.18;6.43;;;;;;;;;;4972285;28;20491;-62
2022/11/05 03:57:58;;;;;;;11.30;5.25;;;;;;;;;;4971257;28;20517;-63
2022/11/05 04:00:25;;;;;;;10.93;6.22;;;;;;;;;;4933804;28;20130;-63
2022/11/05 04:02:51;;;;;;;10.55;5.75;;;;;;;;;;4954479;28;20106;-64
2022/11/05 04:05:17;;;;;;;18.23;6.85;;;;;;;;;;4955034;28;20043;-64
2022/11/05 04:13:27;;;;;;;11.60;6.30;;;;;;;;;;4886522;29;20139;-62
2022/11/05 04:18:38;;;;;;;13.60;6.72;;;;;;;;;;4878932;29;20053;-62
2022/11/05 04:24:08;;;;;;;9.00;5.18;;;;;;;;;;4887716;29;20062;-65
2022/11/05 04:26:38;;;;;;;12.38;5.28;;;;;;;;;;4887762;29;20063;-62
2022/11/05 04:32:08;;;;;;;8.90;5.53;;;;;;;;;;4801932;29;20555;-63
2022/11/05 04:34:34;;;;;;;11.73;5.63;;;;;;;;;;4798377;29;20055;-62
2022/11/05 04:37:00;;;;;;;13.90;5.15;;;;;;;;;;4777356;29;20105;-63
2022/11/05 04:39:26;;;;;;;11.43;5.63;;;;;;;;;;4785790;29;20098;-63
2022/11/05 04:41:52;;;;;;;13.85;5.75;;;;;;;;;;4800567;29;20432;-63
2022/11/05 04:44:18;;;;;;;8.82;4.97;;;;;;;;;;4784648;29;20055;-62
2022/11/05 04:46:44;;;;;;;9.20;4.78;;;;;;;;;;4837522;29;20124;-62
2022/11/05 04:49:10;;;;;;;9.50;5.40;;;;;;;;;;4848730;29;20140;-62
2022/11/05 04:51:36;;;;;;;14.93;5.20;;;;;;;;;;4850800;29;20088;-63
2022/11/05 04:54:02;;;;;;;13.00;5.30;;;;;;;;;;4839817;29;20052;-62
2022/11/05 04:56:28;;;;;;;8.98;5.35;;;;;;;;;;4850981;29;20154;-63
2022/11/05 04:58:54;;;;;;;14.60;5.50;;;;;;;;;;4855046;29;20132;-62
2022/11/05 05:01:22;;;;;;;12.35;5.32;;;;;;;;;;4861436;29;20049;-62
2022/11/05 05:03:49;;;;;;;10.95;5.43;;;;;;;;;;4937405;28;20054;-62
2022/11/05 05:06:15;;;;;;;10.13;5.40;;;;;;;;;;4956206;28;20086;-62
2022/11/05 05:08:41;;;;;;;9.60;4.82;;;;;;;;;;4955240;28;20053;-63
2022/11/05 05:11:09;;;;;;;10.98;6.15;;;;;;;;;;4970443;28;20704;-62
2022/11/05 05:13:35;;;;;;;12.15;5.10;;;;;;;;;;4947410;28;20376;-63
2022/11/05 05:16:05;;;;;;;11.10;5.40;;;;;;;;;;4957612;28;20138;-62
2022/11/05 05:18:31;;;;;;;12.38;5.55;;;;;;;;;;4976371;28;20047;-63
2022/11/05 05:23:43;;;;;;;8.90;4.55;;;;;;;;;;4974975;28;20049;-62
2022/11/05 05:26:09;;;;;;;14.70;5.22;;;;;;;;;;4951707;28;20098;-66
2022/11/05 05:28:35;;;;;;;10.75;5.30;;;;;;;;;;4975523;28;20078;-63
2022/11/05 05:31:01;;;;;;;13.00;5.70;;;;;;;;;;4975013;28;20526;-63
2022/11/05 05:33:28;;;;;;;13.40;5.75;;;;;;;;;;4975738;28;20047;-63
2022/11/05 05:35:56;;;;;;;12.00;5.90;;;;;;;;;;4957934;28;20076;-63
2022/11/05 05:38:22;;;;;;;9.30;5.25;;;;;;;;;;4937219;28;20078;-63
2022/11/05 05:40:49;;;;;;;13.77;5.95;;;;;;;;;;4940989;28;20054;-63
2022/11/05 05:43:15;;;;;;;12.55;5.25;;;;;;;;;;4974529;28;20116;-63
2022/11/05 05:45:41;;;;;;;11.55;5.45;;;;;;;;;;4974356;28;20055;-63
2022/11/05 05:48:07;;;;;;;12.70;5.50;;;;;;;;;;4957447;28;20102;-64
2022/11/05 05:50:33;;;;;;;15.73;5.82;;;;;;;;;;4957600;28;20419;-62
2022/11/05 05:52:59;;;;;;;11.13;5.45;;;;;;;;;;4956993;28;20093;-62
2022/11/05 05:55:25;;;;;;;10.48;4.95;;;;;;;;;;4957300;28;20095;-63
2022/11/05 05:57:51;;;;;;;11.18;4.97;;;;;;;;;;4973179;28;20058;-63
2022/11/05 06:00:17;;;;;;;10.27;5.20;;;;;;;;;;4957546;28;20097;-62
2022/11/05 06:02:43;;;;;;;10.18;6.03;;;;;;;;;;4957678;28;20046;-63
2022/11/05 06:05:10;;;;;;;9.32;5.30;;;;;;;;;;4939620;28;20747;-63
2022/11/05 06:07:36;;;;;;;11.65;5.35;;;;;;;;;;4973786;28;20097;-63
2022/11/05 06:10:02;;;;;;;10.57;6.45;;;;;;;;;;4971358;28;20047;-62
2022/11/05 06:12:31;;;;;;;14.10;5.88;;;;;;;;;;4965467;28;20500;-63
2022/11/05 06:14:57;;;;;;;10.90;5.65;;;;;;;;;;4966068;28;20128;-63
2022/11/05 06:17:23;;;;;;;10.52;5.88;;;;;;;;;;4958429;28;20427;-63
2022/11/05 06:19:49;;;;;;;11.10;6.20;;;;;;;;;;4972873;28;20051;-64
2022/11/05 06:22:15;;;;;;;14.35;7.03;;;;;;;;;;4957742;28;20065;-63
2022/11/05 06:24:41;;;;;;;10.40;6.45;;;;;;;;;;4973376;28;20403;-65
2022/11/05 06:27:07;;;;;;;14.93;6.05;;;;;;;;;;4957065;28;20541;-63
2022/11/05 06:29:33;;;;;;;11.13;6.28;;;;;;;;;;4972736;28;20057;-62
2022/11/05 06:31:59;;;;;;;11.27;5.70;;;;;;;;;;4958074;28;20061;-62
2022/11/05 06:34:25;;;;;;;14.20;5.95;;;;;;;;;;4975145;28;20050;-63
2022/11/05 06:36:51;;;;;;;10.38;4.95;;;;;;;;;;4959308;28;20054;-63
2022/11/05 06:39:17;;;;;;;12.55;6.35;;;;;;;;;;4973535;28;20396;-62
2022/11/05 06:41:43;;;;;;;13.98;5.38;;;;;;;;;;4969016;28;20137;-63
2022/11/05 06:44:10;;;;;;;11.82;5.50;;;;;;;;;;4945696;28;20992;-62
2022/11/05 06:46:36;;;;;;;11.55;5.15;;;;;;;;;;4952642;28;20106;-64
2022/11/05 06:49:02;;;;;;;13.38;5.95;;;;;;;;;;4981017;23;20145;-62
2022/11/05 06:51:29;;;;;;;12.82;5.15;;;;;;;;;;4988345;23;20055;-62
2022/11/05 06:53:55;;;;;;;9.93;4.40;;;;;;;;;;4975948;28;20051;-62
2022/11/05 06:56:21;;;;;;;6.47;3.80;;;;;;;;;;4958354;28;20080;-62
2022/11/05 06:58:47;;;;;;;9.38;4.00;;;;;;;;;;4957227;28;20088;-63
2022/11/05 07:01:13;;;;;;;8.80;4.40;;;;;;;;;;4964741;28;20055;-62
2022/11/05 07:03:39;;;;;;;8.82;4.47;;;;;;;;;;4960876;28;20045;-65
2022/11/05 07:06:06;;;;;;;9.38;4.10;;;;;;;;;;4980492;23;20199;-63
2022/11/05 07:08:33;;;;;;;12.32;4.28;;;;;;;;;;4952194;23;20083;-63
2022/11/05 07:11:00;;;;;;;8.02;3.60;;;;;;;;;;4919117;29;20052;-63
2022/11/05 07:13:26;;;;;;;9.63;4.97;;;;;;;;;;4932211;29;20512;-63
2022/11/05 07:15:52;;;;;;;8.35;4.07;;;;;;;;;;4933880;29;20044;-63
2022/11/05 07:18:18;;;;;;;7.88;3.42;;;;;;;;;;4910889;29;20059;-63
2022/11/05 07:20:44;;;;;;;9.23;4.00;;;;;;;;;;4933508;29;20508;-62
2022/11/05 07:23:11;;;;;;;7.10;3.80;;;;;;;;;;4935371;29;20047;-63
2022/11/05 07:25:37;;;;;;;6.68;4.10;;;;;;;;;;4935406;29;20052;-63
2022/11/05 07:28:04;;;;;;;9.63;3.63;;;;;;;;;;4934008;29;20138;-62
2022/11/05 07:30:30;;;;;;;8.90;3.78;;;;;;;;;;4936134;29;20044;-62
2022/11/05 07:32:56;;;;;;;5.53;3.47;;;;;;;;;;4933870;29;20052;-63
2022/11/05 07:35:23;;;;;;;13.70;5.75;;;;;;;;;;4919076;29;20044;-62
2022/11/05 07:37:50;;;;;;;12.65;4.35;;;;;;;;;;4914264;29;20540;-63
2022/11/05 07:40:17;;;;;;;7.32;4.15;;;;;;;;;;4925995;29;20082;-63
2022/11/05 07:42:44;;;;;;;10.68;3.90;;;;;;;;;;4916735;29;20052;-61
2022/11/05 07:45:11;;;;;;;8.38;4.43;;;;;;;;;;4934523;29;20139;-62
2022/11/05 07:47:47;;;;;;;7.43;4.30;;;;;;;;;;4935788;29;20085;-63
2022/11/05 07:50:13;;;;;;;6.15;3.90;;;;;;;;;;4918024;29;20051;-62
2022/11/05 07:52:40;;;;;;;8.93;3.92;;;;;;;;;;4944741;29;20047;-63
2022/11/05 07:55:06;;;;;;;10.10;4.30;;;;;;;;;;4937375;29;20482;-62
2022/11/05 07:57:32;;;;;;;7.95;4.20;;;;;;;;;;4954616;29;20043;-63
2022/11/05 07:59:58;;;;;;;9.20;4.15;;;;;;;;;;4954528;29;20502;-62
2022/11/05 08:02:24;;;;;;;9.65;3.95;;;;;;;;;;4938028;29;20051;-62
2022/11/05 08:04:50;;;;;;;9.57;4.13;;;;;;;;;;4929799;29;20123;-64
2022/11/05 08:07:16;;;;;;;8.20;3.97;;;;;;;;;;4918726;29;20059;-62
2022/11/05 08:09:42;;;;;;;9.65;4.85;;;;;;;;;;4941989;29;20063;-62
2022/11/05 08:12:08;;;;;;;6.60;3.55;;;;;;;;;;4937310;29;20097;-62
2022/11/05 08:14:34;;;;;;;8.77;3.60;;;;;;;;;;4954491;29;20050;-63
2022/11/05 08:17:00;;;;;;;6.22;3.92;;;;;;;;;;4937241;29;20047;-62
2022/11/05 08:19:26;;;;;;;6.60;3.53;;;;;;;;;;4937277;29;20051;-60
2022/11/05 08:21:52;;;;;;;9.27;4.57;;;;;;;;;;4930948;29;20101;-61
2022/11/05 08:24:18;;;;;;;7.00;3.15;;;;;;;;;;4911072;29;20417;-61
2022/11/05 08:26:44;;;;;;;11.43;3.40;;;;;;;;;;4916563;29;20055;-61
2022/11/05 08:29:10;;;;;;;7.07;3.55;;;;;;;;;;4934932;29;20054;-61
2022/11/05 08:31:36;;;;;;;5.85;3.65;;;;;;;;;;4935140;29;20512;-61
2022/11/05 08:34:02;;;;;;;6.13;3.42;;;;;;;;;;4917926;29;20122;-61
2022/11/05 08:36:28;;;;;;;5.60;3.40;;;;;;;;;;4934849;29;20047;-62
2022/11/05 08:38:54;;;;;;;6.03;3.60;;;;;;;;;;4933782;29;20054;-61
2022/11/05 08:41:20;;;;;;;9.13;4.00;;;;;;;;;;4934957;29;20127;-61
2022/11/05 08:43:46;;;;;;;6.85;3.72;;;;;;;;;;4934139;29;20099;-61
2022/11/05 08:46:12;;;;;;;6.50;4.38;;;;;;;;;;4917826;29;20481;-62
2022/11/05 08:48:38;;;;;;;11.07;5.03;;;;;;;;;;4934999;29;20051;-61
2022/11/05 08:51:04;;;;;;;7.43;3.78;;;;;;;;;;4934314;29;20047;-61
2022/11/05 08:53:30;;;;;;;8.85;3.90;;;;;;;;;;4917485;29;20083;-61
2022/11/05 08:55:59;;;;;;;8.13;3.17;;;;;;;;;;4934447;29;20051;-61
2022/11/05 08:58:25;;;;;;;6.43;3.22;;;;;;;;;;4918116;29;20047;-61
2022/11/05 09:00:51;;;;;;;6.57;3.20;;;;;;;;;;4934547;29;20054;-62
2022/11/05 09:03:17;;;;;;;10.95;3.22;;;;;;;;;;4934734;29;20054;-61
2022/11/05 09:05:44;;;;;;;5.72;3.00;;;;;;;;;;4917673;29;20095;-61
2022/11/05 09:08:14;;;;;;;8.63;2.85;;;;;;;;;;4916480;29;20146;-61
2022/11/05 09:10:40;;;;;;;8.38;3.58;;;;;;;;;;4951826;29;20134;-61
2022/11/05 09:13:07;;;;;;;6.15;2.50;;;;;;;;;;4953587;29;20134;-61
2022/11/05 09:15:34;;;;;;;9.13;2.58;;;;;;;;;;4953724;29;20043;-61
2022/11/05 09:18:01;;;;;;;6.28;2.90;;;;;;;;;;4936482;29;20055;-61
2022/11/05 09:20:27;;;;;;;4.57;2.40;;;;;;;;;;4952782;29;20084;-62
2022/11/05 09:22:53;;;;;;;8.52;2.80;;;;;;;;;;4923949;29;20413;-61
2022/11/05 09:25:19;;;;;;;7.03;2.60;;;;;;;;;;4917635;29;20048;-60
2022/11/05 09:27:45;;;;;;;4.78;2.28;;;;;;;;;;4934506;29;20059;-61
2022/11/05 09:30:12;;;;;;;9.05;2.85;;;;;;;;;;4934463;29;20040;-61
2022/11/05 09:32:38;;;;;;;5.40;2.38;;;;;;;;;;4902214;29;20055;-60
2022/11/05 09:35:04;;;;;;;5.25;2.40;;;;;;;;;;4934469;29;20051;-60
2022/11/05 09:37:30;;;;;;;7.75;2.50;;;;;;;;;;4948413;29;20047;-62
2022/11/05 09:39:56;;;;;;;5.30;2.08;;;;;;;;;;4934123;29;20408;-61
2022/11/05 09:42:25;;;;;;;7.38;2.13;;;;;;;;;;4901984;29;20059;-61
2022/11/05 09:44:58;;;;;;;5.82;2.28;;;;;;;;;;4917087;29;20142;-62
2022/11/05 09:47:27;;;;;;;6.38;2.63;;;;;;;;;;4934729;29;20055;-61
2022/11/05 09:49:54;;;;;;;11.18;2.20;;;;;;;;;;4934185;29;20079;-61
2022/11/05 09:52:24;;;;;;;5.13;2.25;;;;;;;;;;4945132;29;20050;-62
2022/11/05 09:54:51;;;;;;;5.93;2.53;;;;;;;;;;4936274;29;20126;-63
2022/11/05 09:57:25;;;;;;;6.45;2.20;;;;;;;;;;4957029;29;20043;-62
2022/11/05 09:59:53;;;;;;;20.17;5.13;;;;;;;;;;4956689;29;20059;-63
2022/11/05 10:02:38;;;;;;;9.25;2.30;;;;;;;;;;4923807;29;20514;-62
2022/11/05 10:05:07;;;;;;;6.30;2.45;;;;;;;;;;4956021;29;20444;-62
2022/11/05 10:07:38;;;;;;;5.88;2.17;;;;;;;;;;4949493;29;20047;-61
2022/11/05 10:10:07;;;;;;;4.47;2.03;;;;;;;;;;4937350;29;20523;-62
2022/11/05 10:12:48;;;;;;;3.20;1.85;;;;;;;;;;4937491;29;20052;-62
2022/11/05 10:15:22;;;;;;;8.52;2.00;;;;;;;;;;4937445;29;20055;-61
2022/11/05 10:17:50;;;;;;;8.40;2.08;;;;;;;;;;4937360;29;20059;-62
2022/11/05 10:20:22;;;;;;;4.72;1.83;;;;;;;;;;4937452;29;20496;-62
2022/11/05 10:22:49;;;;;;;5.78;2.90;;;;;;;;;;4936128;29;20063;-62
2022/11/05 10:25:17;;;;;;;6.28;2.90;;;;;;;;;;4937449;29;20111;-61
2022/11/05 10:27:46;;;;;;;9.85;2.45;;;;;;;;;;4937404;29;20051;-62
2022/11/05 10:30:14;;;;;;;4.43;1.80;;;;;;;;;;4940678;29;20069;-61
2022/11/05 10:32:40;;;;;;;4.78;2.78;;;;;;;;;;4938982;29;20551;-62
2022/11/05 10:35:08;;;;;;;4.95;2.03;;;;;;;;;;4927403;29;20062;-62
2022/11/05 10:37:35;;;;;;;5.57;1.63;;;;;;;;;;4919045;29;20535;-62
2022/11/05 10:40:01;;;;;;;8.40;1.70;;;;;;;;;;4936884;29;20094;-62
2022/11/05 10:42:45;;;;;;;5.35;1.67;;;;;;;;;;4938658;29;20118;-62
2022/11/05 10:45:11;;;;;;;7.88;2.42;;;;;;;;;;4955916;29;20078;-62
2022/11/05 10:47:55;;;;;;;5.78;1.65;;;;;;;;;;4956028;29;20047;-62
2022/11/05 10:52:55;;;;;;;4.63;1.42;;;;;;;;;;5025923;23;20079;-62
2022/11/05 10:55:24;;;;;;;5.90;1.20;;;;;;;;;;4937021;23;20480;-62
2022/11/05 10:57:51;;;;;;;5.60;1.40;;;;;;;;;;4936172;29;20055;-63
2022/11/05 11:00:17;;;;;;;5.07;1.40;;;;;;;;;;4918894;29;20048;-62
2022/11/05 11:02:46;;;;;;;6.57;1.52;;;;;;;;;;4918693;29;20501;-62
2022/11/05 11:05:19;;;;;;;3.33;1.40;;;;;;;;;;4935564;29;20047;-62
2022/11/05 11:07:51;;;;;;;3.88;1.02;;;;;;;;;;4934462;29;20192;-62
2022/11/05 11:10:21;;;;;;;3.55;1.27;;;;;;;;;;4936381;29;20047;-62
2022/11/05 11:12:48;;;;;;;3.92;0.93;;;;;;;;;;4918232;29;20078;-63
2022/11/05 11:15:20;;;;;;;3.65;1.60;;;;;;;;;;4935401;29;20062;-62
2022/11/05 11:17:46;;;;;;;5.32;1.73;;;;;;;;;;4919471;29;20047;-63
2022/11/05 11:20:23;;;;;;;2.28;0.82;;;;;;;;;;4933605;29;20039;-62
2022/11/05 11:22:58;;;;;;;7.70;1.10;;;;;;;;;;4933818;29;20044;-62
2022/11/05 11:25:25;;;;;;;4.05;1.20;;;;;;;;;;4918790;29;20115;-62
2022/11/05 11:27:51;;;;;;;2.60;1.05;;;;;;;;;;4918866;29;20114;-63
2022/11/05 11:30:19;;;;;;;7.25;2.10;;;;;;;;;;4934974;29;20058;-62
2022/11/05 11:32:46;;;;;;;5.10;1.33;;;;;;;;;;4918630;29;20420;-63
2022/11/05 11:35:38;;;;;;;7.55;1.40;;;;;;;;;;4935659;29;20510;-62
2022/11/05 11:38:05;;;;;;;6.47;1.35;;;;;;;;;;4933122;29;20544;-63
2022/11/05 11:40:32;;;;;;;6.18;1.40;;;;;;;;;;4917526;29;20098;-62
2022/11/05 11:43:00;;;;;;;3.70;1.23;;;;;;;;;;4933954;29;20055;-62
2022/11/05 11:45:26;;;;;;;2.65;1.08;;;;;;;;;;4918008;29;20127;-62
2022/11/05 11:47:54;;;;;;;3.22;1.13;;;;;;;;;;4923709;29;20475;-63
2022/11/05 11:50:43;;;;;;;4.03;1.60;;;;;;;;;;4934629;29;20051;-62
2022/11/05 11:53:21;;;;;;;5.22;1.10;;;;;;;;;;4934770;29;20130;-62
2022/11/05 11:55:59;;;;;;;2.22;0.85;;;;;;;;;;4917929;29;20059;-62
2022/11/05 11:58:39;;;;;;;6.35;1.00;;;;;;;;;;4933363;29;20047;-63
2022/11/05 12:01:17;;;;;;;4.90;0.95;;;;;;;;;;4934593;29;20098;-62
2022/11/05 12:04:02;;;;;;;6.75;1.27;;;;;;;;;;4931795;29;20275;-63
2022/11/05 12:06:34;;;;;;;6.00;1.80;;;;;;;;;;4918761;29;20102;-63
2022/11/05 12:09:10;;;;;;;6.32;1.92;;;;;;;;;;4918277;29;20043;-63
2022/11/05 12:11:43;;;;;;;8.27;2.08;;;;;;;;;;4935289;29;20043;-62
2022/11/05 12:14:15;;;;;;;7.00;1.85;;;;;;;;;;4935775;29;20060;-63
2022/11/05 12:16:52;;;;;;;7.13;2.08;;;;;;;;;;4934154;29;20047;-62
2022/11/05 12:19:18;;;;;;;10.57;2.45;;;;;;;;;;4923361;29;20059;-63
2022/11/05 12:21:58;;;;;;;4.97;2.25;;;;;;;;;;4918366;29;20055;-62
2022/11/05 12:24:36;;;;;;;5.80;2.63;;;;;;;;;;4953449;29;20051;-62
2022/11/05 12:27:17;;;;;;;5.10;2.45;;;;;;;;;;4913280;29;20548;-62
2022/11/05 12:29:50;;;;;;;10.55;2.97;;;;;;;;;;4937844;29;20051;-63
2022/11/05 12:33:02;;;;;;;6.63;2.83;;;12.10;99.90;;;;;;4935398;29;20051;-63
2022/11/05 12:35:28;;;;;;;9.95;3.85;;;;;;;;;;4916088;29;20048;-62
2022/11/05 12:38:03;;;;;;;7.38;2.83;;;;;;;;;;4934712;29;20131;-63
2022/11/05 12:40:35;;;;;;;8.38;4.63;;;;;;;;;;4934413;29;20504;-62
2022/11/05 12:43:04;;;;;;;8.07;3.05;;;;;;;;;;4932315;29;20412;-63
2022/11/05 12:46:09;;;;;;;9.55;3.50;;;;;;;;;;4934495;29;20046;-63
2022/11/05 12:48:35;;;;;;;5.65;2.90;;;;;;;;;;4857358;29;20056;-63
2022/11/05 12:51:09;;;;;;;7.60;3.88;;;;;;;;;;4852674;29;20136;-64
2022/11/05 12:53:41;;;;;;;4.18;2.50;;;;;;;;;;4857764;29;20479;-62
2022/11/05 12:56:13;;;;;;;9.75;3.75;;;;;;;;;;4841766;29;20061;-63
2022/11/05 12:58:46;;;;;;;7.15;2.80;;;;;;;;;;4853538;29;20045;-64
2022/11/05 13:01:15;;;;;;;7.47;3.13;;;;;;;;;;4846767;29;20053;-63
2022/11/05 13:04:08;;;;;;;9.45;3.10;;;;;;;;;;4849050;29;20037;-62
2022/11/05 13:06:38;;;;;;;7.57;2.47;;;;;;;;;;4830188;29;20507;-62
2022/11/05 13:09:18;;;;;;;4.95;2.97;;;;;;;;;;4847681;29;20056;-62
2022/11/05 13:11:48;;;;;;;7.32;3.00;;;;;;;;;;4848974;29;20455;-63
2022/11/05 13:14:20;;;;;;;8.30;3.50;;;;;;;;;;4833411;29;20041;-63
2022/11/05 13:16:49;;;;;;;8.50;3.00;;;;;;;;;;4843263;29;20530;-63
2022/11/05 13:19:21;;;;;;;6.15;3.00;;;;;;;;;;4883813;29;20048;-63
2022/11/05 13:21:50;;;;;;;9.15;3.20;;;;;;;;;;4922466;29;20524;-63
2022/11/05 13:24:18;;;;;;;9.70;3.28;;;;;;;;;;4933027;29;20103;-62
2022/11/05 13:26:55;;;;;;;11.57;3.42;;;;;;;;;;4934285;29;20479;-63
2022/11/05 13:29:33;;;;;;;11.10;3.72;;;;;;;;;;4933548;29;20111;-63
2022/11/05 13:32:02;;;;;;;12.15;3.58;;;;;;;;;;4931367;29;20127;-63
2022/11/05 13:34:28;;;;;;;5.47;2.90;;;;;;;;;;4927934;29;20126;-63
2022/11/05 13:39:41;;;;;;;7.40;2.72;;;;;;;;;;4914010;29;20052;-63
2022/11/05 13:42:28;;;;;;;7.07;2.53;;;11.90;99.90;;;;;;4898293;29;20130;-63
2022/11/05 13:45:13;;;;;;;5.90;2.50;;;;;;;;;;4925704;29;20048;-63
2022/11/05 13:47:48;;;;;;;5.93;3.00;;;;;;;;;;4910213;29;20096;-64
2022/11/05 13:50:33;;;;;;;8.98;2.60;;;;;;;;;;4928690;29;20096;-63
2022/11/05 13:53:14;;;;;;;7.00;3.45;;;;;;;;;;4910197;29;20051;-63
2022/11/05 13:55:49;;;;;;;10.73;3.83;;;;;;;;;;4903331;29;20143;-63
2022/11/05 13:58:37;;;;;;;7.38;2.80;;;;;;;;;;4907465;29;20056;-63
2022/11/05 14:01:43;;;;;;;7.90;3.10;;;11.80;99.90;;;;;;4912664;29;20052;-63
2022/11/05 14:04:22;;;;;;;10.10;3.83;;;;;;;;;;4833584;29;20150;-63
2022/11/05 14:06:48;;;;;;;10.93;3.30;;;;;;;;;;4828239;29;20057;-62
2022/11/05 14:09:24;;;;;;;10.13;3.47;;;;;;;;;;4832342;29;20435;-62
2022/11/05 14:11:53;;;;;;;8.95;3.40;;;;;;;;;;4831660;29;20125;-63
2022/11/05 14:14:21;;;;;;;7.35;3.63;;;;;;;;;;4813594;29;20061;-62
2022/11/05 14:16:50;;;;;;;7.03;3.92;;;;;;;;;;4828465;29;20408;-63
2022/11/05 14:19:19;;;;;;;8.32;3.30;;;;;;;;;;4817286;29;20538;-62
2022/11/05 14:21:52;;;;;;;8.90;3.85;;;;;;;;;;4835250;29;20571;-62
2022/11/05 14:24:24;;;;;;;9.40;4.32;;;;;;;;;;4824273;29;20054;-63
2022/11/05 14:27:02;;;;;;;6.68;3.85;;;;;;;;;;4839813;29;20058;-63
2022/11/05 14:29:44;;;;;;;9.85;4.07;;;;;;;;;;4826033;29;20061;-63
2022/11/05 14:32:16;;;;;;;9.18;3.72;;;;;;;;;;4841011;29;20117;-63
2022/11/05 14:34:42;;;;;;;13.00;4.07;;;;;;;;;;4824257;29;20058;-62
2022/11/05 14:37:11;;;;;;;6.63;3.30;;;;;;;;;;4840747;29;20054;-63
2022/11/05 14:39:38;;;;;;;10.30;4.03;;;;;;;;;;4841228;29;20054;-63
2022/11/05 14:42:12;;;;;;;16.83;3.90;;;;;;;;;;4905631;29;20039;-63
2022/11/05 14:44:55;;;;;;;10.77;3.65;;;;;;;;;;4910807;29;20573;-62
2022/11/05 14:47:22;;;;;;;9.60;3.45;;;;;;;;;;4907549;29;20102;-63
2022/11/05 14:50:32;;;;;;;7.43;3.78;;;11.60;99.90;;;;;;4890547;29;20044;-62
2022/11/05 14:53:00;;;;;;;15.88;3.47;;;;;;;;;;4890930;29;20100;-63
2022/11/05 14:55:40;;;;;;;10.80;3.42;;;;;;;;;;4923357;23;20497;31
2022/11/05 14:58:26;;;;;;;12.25;4.72;;;;;;;;;;4865648;29;20060;-63
2022/11/05 15:00:53;;;;;;;9.57;3.58;;;;;;;;;;4862044;29;20057;-63
2022/11/05 15:03:31;;;;;;;6.53;3.22;;;;;;;;;;4862232;29;20049;-63
2022/11/05 15:06:16;;;;;;;9.95;4.22;;;;;;;;;;4877449;29;20494;-63
2022/11/05 15:08:48;;;;;;;10.48;4.07;;;;;;;;;;4877162;29;20101;-63
2022/11/05 15:11:14;;;;;;;9.13;4.22;;;;;;;;;;4878796;29;20045;-64
2022/11/05 15:13:51;;;;;;;12.05;4.05;;;;;;;;;;4878076;29;20473;-63
2022/11/05 15:16:19;;;;;;;9.75;3.80;;;;;;;;;;4877319;29;20045;-63
2022/11/05 15:18:46;;;;;;;6.90;3.20;;;;;;;;;;4878764;29;20075;-62
2022/11/05 15:21:14;;;;;;;11.60;5.30;;;;;;;;;;4877762;29;20049;-63
2022/11/05 15:23:41;;;;;;;10.38;4.68;;;;;;;;;;4862422;29;20079;-63
2022/11/05 15:26:10;;;;;;;10.35;3.92;;;;;;;;;;4861522;29;20053;-62
2022/11/05 15:28:37;;;;;;;10.93;4.35;;;;;;;;;;4864027;29;20085;-63
2022/11/05 15:31:13;;;;;;;9.85;4.18;;;;;;;;;;4861016;29;20054;-62
2022/11/05 15:33:40;;;;;;;9.48;4.70;;;;;;;;;;4876694;29;20071;-65
2022/11/05 15:36:24;;;;;;;10.18;4.93;;;;;;;;;;4859680;29;20091;-63
2022/11/05 15:38:50;;;;;;;13.48;5.07;;;;;;;;;;4876210;29;20056;-64
2022/11/05 15:41:19;;;;;;;12.23;4.50;;;;;;;;;;4877598;29;20113;-63